Portada
METAR-TAF:

METAR-TAF

Aeroports :

Tak, Tailàndia

latitud: 16-53N, longitud: 099-09E, altitud: 121 m

METAR: manca

Hora: 00:42 (17:42 UTC)

Pronòstic

L'informe es va fer fa 12 hores i 42 minuts, a les 05:00 UTC
Pronòstic vàlid del 21 a les 06 UTC al 22 a les 06 UTC
Vent 5 kt del Est/Sud-Est
Visibilitat 10 km o més
Núvols disperses a una alçada de 2500 ft
Temporalment
l' 21 a les 08 UTC al 21 a les 12 UTC
Vent 15 kt amb direcció variable amb ràfegues de 30 kt
Visibilitat: 4000 m
Escasses núvols a una alçada de 1800 ft, Cumulonimbus.
Cel ennuvolat a una alçada de 2500 ft
tempesta, pluja
Evolucionant progressivament
l' 21 a les 21 UTC al 21 a les 23 UTC
Visibilitat: 5000 m
Escasses núvols a una alçada de 2500 ft
boirina
Evolucionant progressivament
l' 22 a les 01 UTC al 22 a les 03 UTC
Visibilitat 10 km o més

TAF: VTPT 210500Z 2106/2206 12005KT 9999 SCT025 TEMPO 2108/2112 VRB15G30KT 4000 TSRA FEW018CB BKN025 BECMG 2121/2123 5000 BR FEW025 BECMG 2201/2203 9999 NSW

Observacions i pronòstics meteorològics de més de 4000 aeroports (METAR i TAF).

Les estacions disponibles són els punts grocs i vermells al mapa.

Posi el ratolí al punt desitjat per veure el nom de l'estació.

Feu clic per veure les observacions i els pronòstics meteorològics.

Per canviar el mapa: feu clic els botons verds amb una creu de color negre per apropar; al botó verd amb un guió per allunyar la imatge; o en les fletxes verdes per a mapes adjacents.


METAR-TAF: